sensor_id;sensor_type;location;lat;lon;timestamp;pressure;altitude;pressure_sealevel;temperature;humidity
21433;BME280;18592;49.708;10.900;2023-02-23T00:03:18;98240.59;;;12.55;52.96
21433;BME280;18592;49.708;10.900;2023-02-23T00:05:21;98235.41;;;12.54;52.77
21433;BME280;18592;49.708;10.900;2023-02-23T00:07:23;98235.97;;;12.56;53.10
21433;BME280;18592;49.708;10.900;2023-02-23T00:09:27;98236.78;;;12.56;52.80
21433;BME280;18592;49.708;10.900;2023-02-23T00:11:36;98235.13;;;12.55;52.86
21433;BME280;18592;49.708;10.900;2023-02-23T00:13:40;98239.78;;;12.55;52.88
21433;BME280;18592;49.708;10.900;2023-02-23T00:15:42;98233.50;;;12.54;52.86
21433;BME280;18592;49.708;10.900;2023-02-23T00:17:43;98238.97;;;12.54;52.89
21433;BME280;18592;49.708;10.900;2023-02-23T00:19:48;98236.25;;;12.54;52.75
21433;BME280;18592;49.708;10.900;2023-02-23T00:21:50;98237.31;;;12.53;52.87
21433;BME280;18592;49.708;10.900;2023-02-23T00:23:55;98245.22;;;12.50;53.13
21433;BME280;18592;49.708;10.900;2023-02-23T00:25:57;98232.38;;;12.50;52.81
21433;BME280;18592;49.708;10.900;2023-02-23T00:27:59;98233.22;;;12.51;52.75
21433;BME280;18592;49.708;10.900;2023-02-23T00:30:01;98232.69;;;12.49;52.53
21433;BME280;18592;49.708;10.900;2023-02-23T00:32:03;98230.19;;;12.47;52.84
21433;BME280;18592;49.708;10.900;2023-02-23T00:34:05;98234.03;;;12.46;52.95
21433;BME280;18592;49.708;10.900;2023-02-23T00:36:10;98230.47;;;12.46;52.88
21433;BME280;18592;49.708;10.900;2023-02-23T00:38:12;98229.66;;;12.45;52.79
21433;BME280;18592;49.708;10.900;2023-02-23T00:40:16;98231.84;;;12.43;52.84
21433;BME280;18592;49.708;10.900;2023-02-23T00:42:18;98234.84;;;12.42;52.82
21433;BME280;18592;49.708;10.900;2023-02-23T00:44:22;98241.09;;;12.37;53.05
21433;BME280;18592;49.708;10.900;2023-02-23T00:46:26;98235.63;;;12.37;52.88
21433;BME280;18592;49.708;10.900;2023-02-23T00:48:28;98232.91;;;12.37;52.77
21433;BME280;18592;49.708;10.900;2023-02-23T00:50:29;98230.19;;;12.37;52.75
21433;BME280;18592;49.708;10.900;2023-02-23T00:52:32;98230.47;;;12.36;53.00
21433;BME280;18592;49.708;10.900;2023-02-23T00:54:36;98227.19;;;12.34;52.69
21433;BME280;18592;49.708;10.900;2023-02-23T00:56:40;98231.00;;;12.33;52.78
21433;BME280;18592;49.708;10.900;2023-02-23T00:58:42;98233.19;;;12.31;53.06
21433;BME280;18592;49.708;10.900;2023-02-23T01:00:44;98223.06;;;12.31;53.09
21433;BME280;18592;49.708;10.900;2023-02-23T01:02:47;98232.63;;;12.29;53.09
21433;BME280;18592;49.708;10.900;2023-02-23T01:04:49;98228.25;;;12.28;52.89
21433;BME280;18592;49.708;10.900;2023-02-23T01:06:50;98232.63;;;12.29;52.80
21433;BME280;18592;49.708;10.900;2023-02-23T01:08:52;98237.28;;;12.28;53.07
21433;BME280;18592;49.708;10.900;2023-02-23T01:10:57;98230.44;;;12.26;53.04
21433;BME280;18592;49.708;10.900;2023-02-23T01:12:58;98235.91;;;12.26;53.14
21433;BME280;18592;49.708;10.900;2023-02-23T01:15:00;98228.78;;;12.25;53.08
21433;BME280;18592;49.708;10.900;2023-02-23T01:17:05;98230.97;;;12.23;52.98
21433;BME280;18592;49.708;10.900;2023-02-23T01:19:10;98239.44;;;12.21;53.07
21433;BME280;18592;49.708;10.900;2023-02-23T01:21:17;98233.16;;;12.21;53.05
21433;BME280;18592;49.708;10.900;2023-02-23T01:23:19;98239.44;;;12.21;53.26
21433;BME280;18592;49.708;10.900;2023-02-23T01:25:22;98236.72;;;12.21;53.18
21433;BME280;18592;49.708;10.900;2023-02-23T01:27:25;98247.91;;;12.20;53.38
21433;BME280;18592;49.708;10.900;2023-02-23T01:29:27;98241.88;;;12.18;53.04
21433;BME280;18592;49.708;10.900;2023-02-23T01:31:30;98241.06;;;12.17;53.15
21433;BME280;18592;49.708;10.900;2023-02-23T01:33:31;98247.34;;;12.18;53.11
21433;BME280;18592;49.708;10.900;2023-02-23T01:35:34;98247.34;;;12.18;52.94
21433;BME280;18592;49.708;10.900;2023-02-23T01:37:38;98251.44;;;12.15;53.01
21433;BME280;18592;49.708;10.900;2023-02-23T01:39:43;98241.88;;;12.13;53.09
21433;BME280;18592;49.708;10.900;2023-02-23T01:41:45;98246.50;;;12.12;53.18
21433;BME280;18592;49.708;10.900;2023-02-23T01:44:04;98245.69;;;12.06;53.57
21433;BME280;18592;49.708;10.900;2023-02-23T01:46:09;98244.34;;;12.09;53.01
21433;BME280;18592;49.708;10.900;2023-02-23T01:48:25;98245.69;;;12.06;53.35
21433;BME280;18592;49.708;10.900;2023-02-23T01:50:37;98242.97;;;12.06;53.47
21433;BME280;18592;49.708;10.900;2023-02-23T01:52:39;98239.13;;;12.07;53.34
21433;BME280;18592;49.708;10.900;2023-02-23T01:54:52;98241.03;;;12.07;53.45
21433;BME280;18592;49.708;10.900;2023-02-23T01:56:57;98242.97;;;12.06;53.26
21433;BME280;18592;49.708;10.900;2023-02-23T01:59:04;98245.94;;;12.05;53.25
21433;BME280;18592;49.708;10.900;2023-02-23T02:01:09;98238.28;;;12.07;53.42
21433;BME280;18592;49.708;10.900;2023-02-23T02:03:16;98238.56;;;12.05;53.59
21433;BME280;18592;49.708;10.900;2023-02-23T02:05:23;98242.13;;;12.06;53.60
21433;BME280;18592;49.708;10.900;2023-02-23T02:07:33;98245.94;;;12.05;53.73
21433;BME280;18592;49.708;10.900;2023-02-23T02:09:36;98235.31;;;12.03;53.59
21433;BME280;18592;49.708;10.900;2023-02-23T02:11:40;98238.03;;;12.03;53.63
21433;BME280;18592;49.708;10.900;2023-02-23T02:13:45;98237.47;;;12.01;53.45
21433;BME280;18592;49.708;10.900;2023-02-23T02:15:57;98235.56;;;12.02;53.71
21433;BME280;18592;49.708;10.900;2023-02-23T02:18:15;98231.19;;;12.01;53.73
21433;BME280;18592;49.708;10.900;2023-02-23T02:25:49;98226.25;;;11.98;53.64
21433;BME280;18592;49.708;10.900;2023-02-23T02:37:37;98236.09;;;11.94;53.82
21433;BME280;18592;49.708;10.900;2023-02-23T02:40:08;98229.25;;;11.91;53.97
21433;BME280;18592;49.708;10.900;2023-02-23T02:42:28;98235.25;;;11.93;53.70
21433;BME280;18592;49.708;10.900;2023-02-23T02:47:00;98228.44;;;11.91;53.87
21433;BME280;18592;49.708;10.900;2023-02-23T02:49:49;98225.94;;;11.89;53.84
21433;BME280;18592;49.708;10.900;2023-02-23T02:55:55;98227.06;;;11.88;54.00
21433;BME280;18592;49.708;10.900;2023-02-23T02:58:01;98221.59;;;11.88;53.87
21433;BME280;18592;49.708;10.900;2023-02-23T03:00:04;98218.84;;;11.88;53.98
21433;BME280;18592;49.708;10.900;2023-02-23T03:02:24;98223.50;;;11.88;53.95
21433;BME280;18592;49.708;10.900;2023-02-23T03:04:45;98219.94;;;11.87;53.88
21433;BME280;18592;49.708;10.900;2023-02-23T03:08:16;98224.31;;;11.83;54.29
21433;BME280;18592;49.708;10.900;2023-02-23T03:13:04;98230.84;;;11.82;53.90
21433;BME280;18592;49.708;10.900;2023-02-23T03:18:20;98221.28;;;11.80;54.19
21433;BME280;18592;49.708;10.900;2023-02-23T03:20:51;98233.03;;;11.80;54.05
21433;BME280;18592;49.708;10.900;2023-02-23T03:23:21;98227.56;;;11.80;53.92
21433;BME280;18592;49.708;10.900;2023-02-23T03:26:06;98231.66;;;11.78;54.03
21433;BME280;18592;49.708;10.900;2023-02-23T03:28:34;98234.38;;;11.78;53.90
21433;BME280;18592;49.708;10.900;2023-02-23T03:31:35;98234.66;;;11.76;54.05
21433;BME280;18592;49.708;10.900;2023-02-23T03:36:36;98230.28;;;11.75;54.01
21433;BME280;18592;49.708;10.900;2023-02-23T03:41:41;98234.06;;;11.74;54.01
21433;BME280;18592;49.708;10.900;2023-02-23T03:44:11;98239.00;;;11.72;54.01
21433;BME280;18592;49.708;10.900;2023-02-23T03:46:34;98236.25;;;11.72;54.38
21433;BME280;18592;49.708;10.900;2023-02-23T03:48:59;98235.72;;;11.70;54.01
21433;BME280;18592;49.708;10.900;2023-02-23T03:51:21;98234.06;;;11.69;54.25
21433;BME280;18592;49.708;10.900;2023-02-23T03:53:53;98242.75;;;11.66;53.99
21433;BME280;18592;49.708;10.900;2023-02-23T03:56:16;98241.66;;;11.67;54.12
21433;BME280;18592;49.708;10.900;2023-02-23T03:58:43;98235.66;;;11.65;54.02
21433;BME280;18592;49.708;10.900;2023-02-23T04:01:05;98239.22;;;11.66;54.03
21433;BME280;18592;49.708;10.900;2023-02-23T04:03:28;98246.03;;;11.63;54.20
21433;BME280;18592;49.708;10.900;2023-02-23T04:05:51;98237.31;;;11.66;53.92
21433;BME280;18592;49.708;10.900;2023-02-23T04:08:17;98243.28;;;11.63;54.02
21433;BME280;18592;49.708;10.900;2023-02-23T04:10:45;98240.00;;;11.61;54.01
21433;BME280;18592;49.708;10.900;2023-02-23T04:13:13;98239.44;;;11.59;54.09
21433;BME280;18592;49.708;10.900;2023-02-23T04:15:36;98236.16;;;11.57;53.94
21433;BME280;18592;49.708;10.900;2023-02-23T04:17:38;98239.97;;;11.56;54.21
21433;BME280;18592;49.708;10.900;2023-02-23T04:19:51;98239.44;;;11.59;53.82
21433;BME280;18592;49.708;10.900;2023-02-23T04:21:56;98241.34;;;11.59;53.85
21433;BME280;18592;49.708;10.900;2023-02-23T04:23:58;98244.88;;;11.59;53.53
21433;BME280;18592;49.708;10.900;2023-02-23T04:26:00;98257.72;;;11.59;53.61
21433;BME280;18592;49.708;10.900;2023-02-23T04:28:02;98250.88;;;11.56;53.85
21433;BME280;18592;49.708;10.900;2023-02-23T04:30:04;98255.25;;;11.57;53.84
21433;BME280;18592;49.708;10.900;2023-02-23T04:32:06;98252.53;;;11.57;53.76
21433;BME280;18592;49.708;10.900;2023-02-23T04:34:08;98249.81;;;11.57;53.69
21433;BME280;18592;49.708;10.900;2023-02-23T04:36:10;98251.97;;;11.55;53.61
21433;BME280;18592;49.708;10.900;2023-02-23T04:38:12;98249.50;;;11.54;53.68
21433;BME280;18592;49.708;10.900;2023-02-23T04:40:13;98246.75;;;11.54;53.59
21433;BME280;18592;49.708;10.900;2023-02-23T04:42:16;98249.47;;;11.48;53.68
21433;BME280;18592;49.708;10.900;2023-02-23T04:44:18;98260.66;;;11.47;53.75
21433;BME280;18592;49.708;10.900;2023-02-23T04:46:19;98247.53;;;11.44;53.68
21433;BME280;18592;49.708;10.900;2023-02-23T04:48:21;98249.44;;;11.43;53.77
21433;BME280;18592;49.708;10.900;2023-02-23T04:50:25;98251.63;;;11.41;53.54
21433;BME280;18592;49.708;10.900;2023-02-23T04:52:27;98244.78;;;11.39;53.84
21433;BME280;18592;49.708;10.900;2023-02-23T04:54:28;98254.31;;;11.36;53.88
21433;BME280;18592;49.708;10.900;2023-02-23T04:56:30;98257.00;;;11.31;53.98
21433;BME280;18592;49.708;10.900;2023-02-23T04:58:32;98257.81;;;11.27;53.83
21433;BME280;18592;49.708;10.900;2023-02-23T05:00:33;98258.63;;;11.27;54.04
21433;BME280;18592;49.708;10.900;2023-02-23T05:02:41;98265.44;;;11.25;53.90
21433;BME280;18592;49.708;10.900;2023-02-23T05:04:42;98253.69;;;11.24;54.00
21433;BME280;18592;49.708;10.900;2023-02-23T05:06:44;98259.97;;;11.25;54.07
21433;BME280;18592;49.708;10.900;2023-02-23T05:08:46;98256.94;;;11.21;54.06
21433;BME280;18592;49.708;10.900;2023-02-23T05:10:48;98258.59;;;11.22;53.85
21433;BME280;18592;49.708;10.900;2023-02-23T05:12:49;98258.84;;;11.21;54.08
21433;BME280;18592;49.708;10.900;2023-02-23T05:14:51;98257.22;;;11.20;54.00
21433;BME280;18592;49.708;10.900;2023-02-23T05:16:53;98253.94;;;11.18;53.73
21433;BME280;18592;49.708;10.900;2023-02-23T05:18:55;98264.25;;;11.16;53.93
21433;BME280;18592;49.708;10.900;2023-02-23T05:21:05;98263.72;;;11.14;54.07
21433;BME280;18592;49.708;10.900;2023-02-23T05:23:07;98258.75;;;11.11;54.07
21433;BME280;18592;49.708;10.900;2023-02-23T05:25:09;98254.94;;;11.07;54.21
21433;BME280;18592;49.708;10.900;2023-02-23T05:27:12;98260.94;;;11.09;53.81
21433;BME280;18592;49.708;10.900;2023-02-23T05:29:17;98264.19;;;11.06;54.25
21433;BME280;18592;49.708;10.900;2023-02-23T05:31:19;98261.22;;;11.07;54.05
21433;BME280;18592;49.708;10.900;2023-02-23T05:33:23;98256.78;;;11.01;54.07
21433;BME280;18592;49.708;10.900;2023-02-23T05:35:25;98257.91;;;11.00;54.54
21433;BME280;18592;49.708;10.900;2023-02-23T05:37:27;98258.69;;;11.01;53.93
21433;BME280;18592;49.708;10.900;2023-02-23T05:39:28;98265.25;;;11.00;54.36
21433;BME280;18592;49.708;10.900;2023-02-23T05:41:30;98254.03;;;10.96;54.22
21433;BME280;18592;49.708;10.900;2023-02-23T05:43:32;98260.31;;;10.97;54.34
21433;BME280;18592;49.708;10.900;2023-02-23T05:45:39;98259.47;;;10.96;54.64
21433;BME280;18592;49.708;10.900;2023-02-23T05:47:43;98263.88;;;10.97;54.62
21433;BME280;18592;49.708;10.900;2023-02-23T05:49:45;98271.50;;;10.95;54.57
21433;BME280;18592;49.708;10.900;2023-02-23T05:51:47;98266.84;;;10.96;54.65
21433;BME280;18592;49.708;10.900;2023-02-23T05:53:49;98269.00;;;10.94;54.52
21433;BME280;18592;49.708;10.900;2023-02-23T05:55:50;98266.28;;;10.94;54.65
21433;BME280;18592;49.708;10.900;2023-02-23T05:57:52;98266.84;;;10.96;54.67
21433;BME280;18592;49.708;10.900;2023-02-23T05:59:54;98261.13;;;10.97;54.60
21433;BME280;18592;49.708;10.900;2023-02-23T06:01:55;98264.69;;;10.98;54.58
21433;BME280;18592;49.708;10.900;2023-02-23T06:03:57;98268.50;;;10.97;54.55
21433;BME280;18592;49.708;10.900;2023-02-23T06:05:59;98269.59;;;11.01;54.54
21433;BME280;18592;49.708;10.900;2023-02-23T06:08:01;98264.69;;;10.98;54.43
21433;BME280;18592;49.708;10.900;2023-02-23T06:10:03;98269.56;;;10.96;54.62
21433;BME280;18592;49.708;10.900;2023-02-23T06:12:05;98266.84;;;10.96;54.52
21433;BME280;18592;49.708;10.900;2023-02-23T06:14:07;98276.34;;;10.93;54.79
21433;BME280;18592;49.708;10.900;2023-02-23T06:16:09;98281.81;;;10.93;54.85
21433;BME280;18592;49.708;10.900;2023-02-23T06:18:10;98271.19;;;10.92;54.87
21433;BME280;18592;49.708;10.900;2023-02-23T06:20:12;98278.53;;;10.91;54.51
21433;BME280;18592;49.708;10.900;2023-02-23T06:22:15;98286.47;;;10.93;54.52
21433;BME280;18592;49.708;10.900;2023-02-23T06:24:18;98290.25;;;10.92;54.87
21433;BME280;18592;49.708;10.900;2023-02-23T06:26:20;98287.81;;;10.90;54.63
21433;BME280;18592;49.708;10.900;2023-02-23T06:28:21;98283.16;;;10.91;54.66
21433;BME280;18592;49.708;10.900;2023-02-23T06:30:23;98293.25;;;10.90;54.98
21433;BME280;18592;49.708;10.900;2023-02-23T06:32:25;98298.44;;;10.92;54.66
21433;BME280;18592;49.708;10.900;2023-02-23T06:34:28;98300.63;;;10.90;54.72
21433;BME280;18592;49.708;10.900;2023-02-23T06:36:32;98296.53;;;10.92;55.17
21433;BME280;18592;49.708;10.900;2023-02-23T06:38:35;98303.91;;;10.92;54.65
21433;BME280;18592;49.708;10.900;2023-02-23T06:40:38;98302.00;;;10.92;54.81
21433;BME280;18592;49.708;10.900;2023-02-23T06:42:40;98306.34;;;10.93;55.07
21433;BME280;18592;49.708;10.900;2023-02-23T06:44:41;98311.56;;;10.95;55.11
21433;BME280;18592;49.708;10.900;2023-02-23T06:46:43;98317.25;;;10.93;55.23
21433;BME280;18592;49.708;10.900;2023-02-23T06:48:45;98312.06;;;10.92;55.05
21433;BME280;18592;49.708;10.900;2023-02-23T06:50:47;98309.91;;;10.94;55.09
21433;BME280;18592;49.708;10.900;2023-02-23T06:52:49;98311.81;;;10.93;55.36
21433;BME280;18592;49.708;10.900;2023-02-23T06:54:52;98306.94;;;10.95;55.10
21433;BME280;18592;49.708;10.900;2023-02-23T06:56:54;98317.03;;;10.95;54.63
21433;BME280;18592;49.708;10.900;2023-02-23T06:58:57;98317.84;;;10.95;55.08
21433;BME280;18592;49.708;10.900;2023-02-23T07:00:58;98318.91;;;10.94;54.96
21433;BME280;18592;49.708;10.900;2023-02-23T07:03:00;98319.47;;;10.96;55.20
21433;BME280;18592;49.708;10.900;2023-02-23T07:05:03;98322.47;;;10.95;55.53
21433;BME280;18592;49.708;10.900;2023-02-23T07:07:04;98321.13;;;10.97;55.28
21433;BME280;18592;49.708;10.900;2023-02-23T07:09:06;98321.69;;;10.99;55.33
21433;BME280;18592;49.708;10.900;2023-02-23T07:11:09;98326.88;;;11.01;55.23
21433;BME280;18592;49.708;10.900;2023-02-23T07:13:11;98335.88;;;11.01;55.32
21433;BME280;18592;49.708;10.900;2023-02-23T07:15:13;98331.81;;;11.04;55.28
21433;BME280;18592;49.708;10.900;2023-02-23T07:17:18;98328.56;;;11.07;55.28
21433;BME280;18592;49.708;10.900;2023-02-23T07:19:22;98330.47;;;11.06;55.11
21433;BME280;18592;49.708;10.900;2023-02-23T07:21:24;98335.94;;;11.06;55.42
21433;BME280;18592;49.708;10.900;2023-02-23T07:23:25;98327.22;;;11.09;55.29
21433;BME280;18592;49.708;10.900;2023-02-23T07:25:30;98333.19;;;11.06;55.53
21433;BME280;18592;49.708;10.900;2023-02-23T07:27:31;98332.41;;;11.11;55.31
21433;BME280;18592;49.708;10.900;2023-02-23T07:29:33;98329.44;;;11.12;54.87
21433;BME280;18592;49.708;10.900;2023-02-23T07:31:35;98333.25;;;11.11;55.29
21433;BME280;18592;49.708;10.900;2023-02-23T07:33:38;98330.28;;;11.13;55.48
21433;BME280;18592;49.708;10.900;2023-02-23T07:35:40;98335.16;;;11.11;55.56
21433;BME280;18592;49.708;10.900;2023-02-23T07:37:44;98336.53;;;11.13;55.64
21433;BME280;18592;49.708;10.900;2023-02-23T07:39:46;98338.50;;;11.18;55.38
21433;BME280;18592;49.708;10.900;2023-02-23T07:41:48;98329.50;;;11.17;55.62
21433;BME280;18592;49.708;10.900;2023-02-23T07:43:51;98338.78;;;11.21;55.77
21433;BME280;18592;49.708;10.900;2023-02-23T07:45:53;98340.16;;;11.24;55.59
21433;BME280;18592;49.708;10.900;2023-02-23T07:47:55;98339.94;;;11.25;55.61
21433;BME280;18592;49.708;10.900;2023-02-23T07:50:02;98335.28;;;11.26;55.73
21433;BME280;18592;49.708;10.900;2023-02-23T07:52:09;98336.97;;;11.32;55.39
21433;BME280;18592;49.708;10.900;2023-02-23T07:54:10;98337.28;;;11.35;55.66
21433;BME280;18592;49.708;10.900;2023-02-23T07:56:12;98336.44;;;11.35;55.33
21433;BME280;18592;49.708;10.900;2023-02-23T07:58:14;98344.38;;;11.36;55.63
21433;BME280;18592;49.708;10.900;2023-02-23T08:00:16;98341.41;;;11.38;55.66
21433;BME280;18592;49.708;10.900;2023-02-23T08:02:18;98338.94;;;11.41;55.71
21433;BME280;18592;49.708;10.900;2023-02-23T08:04:19;98342.22;;;11.43;55.29
21433;BME280;18592;49.708;10.900;2023-02-23T08:06:21;98341.19;;;11.49;55.58
21433;BME280;18592;49.708;10.900;2023-02-23T08:08:23;98344.47;;;11.52;55.67
21433;BME280;18592;49.708;10.900;2023-02-23T08:10:24;98337.66;;;11.54;55.71
21433;BME280;18592;49.708;10.900;2023-02-23T08:12:26;98342.06;;;11.55;56.13
21433;BME280;18592;49.708;10.900;2023-02-23T08:14:28;98336.63;;;11.60;55.82
21433;BME280;18592;49.708;10.900;2023-02-23T08:16:31;98349.50;;;11.65;55.90
21433;BME280;18592;49.708;10.900;2023-02-23T08:18:33;98344.38;;;11.68;55.63
21433;BME280;18592;49.708;10.900;2023-02-23T08:20:35;98346.31;;;11.73;55.84
21433;BME280;18592;49.708;10.900;2023-02-23T08:22:37;98352.88;;;11.77;55.94
21433;BME280;18592;49.708;10.900;2023-02-23T08:24:49;98343.06;;;11.81;55.69
21433;BME280;18592;49.708;10.900;2023-02-23T08:26:52;98350.47;;;11.85;55.89
21433;BME280;18592;49.708;10.900;2023-02-23T08:28:54;98350.22;;;11.92;55.85
21433;BME280;18592;49.708;10.900;2023-02-23T08:30:56;98350.22;;;11.92;56.12
21433;BME280;18592;49.708;10.900;2023-02-23T08:33:00;98353.25;;;11.95;55.98
21433;BME280;18592;49.708;10.900;2023-02-23T08:35:02;98354.13;;;12.01;55.91
21433;BME280;18592;49.708;10.900;2023-02-23T08:37:03;98346.19;;;12.04;56.06
21433;BME280;18592;49.708;10.900;2023-02-23T08:39:05;98351.69;;;12.09;55.88
21433;BME280;18592;49.708;10.900;2023-02-23T08:41:07;98352.25;;;12.12;55.78
21433;BME280;18592;49.708;10.900;2023-02-23T08:43:09;98348.44;;;12.18;56.02
21433;BME280;18592;49.708;10.900;2023-02-23T08:45:11;98350.09;;;12.19;56.03
21433;BME280;18592;49.708;10.900;2023-02-23T08:47:13;98352.03;;;12.23;56.03
21433;BME280;18592;49.708;10.900;2023-02-23T08:49:16;98354.78;;;12.28;55.66
21433;BME280;18592;49.708;10.900;2023-02-23T08:51:18;98353.44;;;12.31;56.15
21433;BME280;18592;49.708;10.900;2023-02-23T08:53:20;98352.91;;;12.34;55.91
21433;BME280;18592;49.708;10.900;2023-02-23T08:55:23;98351.03;;;12.39;55.97
21433;BME280;18592;49.708;10.900;2023-02-23T08:57:25;98347.47;;;12.44;56.11
21433;BME280;18592;49.708;10.900;2023-02-23T08:59:27;98353.50;;;12.46;55.92
21433;BME280;18592;49.708;10.900;2023-02-23T09:01:29;98348.56;;;12.48;56.02
21433;BME280;18592;49.708;10.900;2023-02-23T09:03:31;98352.44;;;12.52;55.98
21433;BME280;18592;49.708;10.900;2023-02-23T09:05:37;98363.38;;;12.57;55.69
21433;BME280;18592;49.708;10.900;2023-02-23T09:07:40;98350.81;;;12.61;55.69
21433;BME280;18592;49.708;10.900;2023-02-23T09:09:45;98356.28;;;12.66;55.84
21433;BME280;18592;49.708;10.900;2023-02-23T09:11:47;98360.13;;;12.70;55.66
21433;BME280;18592;49.708;10.900;2023-02-23T09:13:49;98356.84;;;12.73;55.57
21433;BME280;18592;49.708;10.900;2023-02-23T09:15:50;98356.03;;;12.72;55.70
21433;BME280;18592;49.708;10.900;2023-02-23T09:17:52;98353.03;;;12.74;55.75
21433;BME280;18592;49.708;10.900;2023-02-23T09:19:54;98357.97;;;12.77;55.62
21433;BME280;18592;49.708;10.900;2023-02-23T09:21:56;98357.69;;;12.79;55.63
21433;BME280;18592;49.708;10.900;2023-02-23T09:23:58;98354.97;;;12.84;55.88
21433;BME280;18592;49.708;10.900;2023-02-23T09:26:04;98355.78;;;12.84;55.82
21433;BME280;18592;49.708;10.900;2023-02-23T09:28:06;98354.16;;;12.88;55.73
21433;BME280;18592;49.708;10.900;2023-02-23T09:30:08;98353.06;;;12.89;55.51
21433;BME280;18592;49.708;10.900;2023-02-23T09:32:10;98347.31;;;12.91;55.83
21433;BME280;18592;49.708;10.900;2023-02-23T09:34:12;98352.78;;;12.96;55.70
21433;BME280;18592;49.708;10.900;2023-02-23T09:36:16;98353.09;;;12.99;55.86
21433;BME280;18592;49.708;10.900;2023-02-23T09:38:18;98354.47;;;13.02;55.72
21433;BME280;18592;49.708;10.900;2023-02-23T09:40:29;98361.28;;;13.04;55.87
21433;BME280;18592;49.708;10.900;2023-02-23T09:45:15;98357.78;;;13.09;55.87
21433;BME280;18592;49.708;10.900;2023-02-23T09:47:30;98360.25;;;13.10;55.92
21433;BME280;18592;49.708;10.900;2023-02-23T09:49:40;98360.25;;;13.15;55.72
21433;BME280;18592;49.708;10.900;2023-02-23T09:51:48;98357.78;;;13.19;55.82
21433;BME280;18592;49.708;10.900;2023-02-23T09:53:56;98358.06;;;13.22;55.79
21433;BME280;18592;49.708;10.900;2023-02-23T09:56:30;98354.22;;;13.23;55.79
21433;BME280;18592;49.708;10.900;2023-02-23T09:58:37;98355.59;;;13.26;55.66
21433;BME280;18592;49.708;10.900;2023-02-23T10:00:43;98353.44;;;13.28;55.79
21433;BME280;18592;49.708;10.900;2023-02-23T10:08:00;98364.91;;;13.30;55.87
21433;BME280;18592;49.708;10.900;2023-02-23T10:10:23;98359.97;;;13.32;56.01
21433;BME280;18592;49.708;10.900;2023-02-23T10:12:49;98359.16;;;13.31;55.83
21433;BME280;18592;49.708;10.900;2023-02-23T10:15:05;98362.44;;;13.33;55.91
21433;BME280;18592;49.708;10.900;2023-02-23T10:19:50;98358.31;;;13.36;55.94
21433;BME280;18592;49.708;10.900;2023-02-23T10:21:56;98363.56;;;13.38;55.97
21433;BME280;18592;49.708;10.900;2023-02-23T10:24:12;98363.00;;;13.35;55.91
21433;BME280;18592;49.708;10.900;2023-02-23T10:26:23;98370.09;;;13.36;56.45
21433;BME280;18592;49.708;10.900;2023-02-23T10:28:25;98370.94;;;13.42;56.07
21433;BME280;18592;49.708;10.900;2023-02-23T10:30:32;98368.47;;;13.46;56.18
21433;BME280;18592;49.708;10.900;2023-02-23T10:32:48;98372.84;;;13.47;56.31
21433;BME280;18592;49.708;10.900;2023-02-23T10:34:54;98375.34;;;13.48;56.20
21433;BME280;18592;49.708;10.900;2023-02-23T10:36:59;98375.88;;;13.50;56.10
21433;BME280;18592;49.708;10.900;2023-02-23T10:39:06;98369.56;;;13.50;56.49
21433;BME280;18592;49.708;10.900;2023-02-23T10:41:09;98373.38;;;13.54;56.44
21433;BME280;18592;49.708;10.900;2023-02-23T10:43:15;98373.97;;;13.56;56.40
21433;BME280;18592;49.708;10.900;2023-02-23T10:45:22;98364.09;;;13.60;56.44
21433;BME280;18592;49.708;10.900;2023-02-23T10:47:35;98365.44;;;13.62;56.45
21433;BME280;18592;49.708;10.900;2023-02-23T10:49:42;98374.22;;;13.64;56.51
21433;BME280;18592;49.708;10.900;2023-02-23T10:51:44;98365.44;;;13.67;56.40
21433;BME280;18592;49.708;10.900;2023-02-23T10:53:46;98373.94;;;13.71;56.56
21433;BME280;18592;49.708;10.900;2023-02-23T10:56:00;98366.53;;;13.71;56.86
21433;BME280;18592;49.708;10.900;2023-02-23T10:58:16;98364.91;;;13.75;56.55
21433;BME280;18592;49.708;10.900;2023-02-23T11:02:23;98374.19;;;13.84;56.44
21433;BME280;18592;49.708;10.900;2023-02-23T11:04:31;98366.25;;;13.88;56.63
21433;BME280;18592;49.708;10.900;2023-02-23T11:06:37;98361.84;;;13.92;56.57
21433;BME280;18592;49.708;10.900;2023-02-23T11:08:43;98364.03;;;13.95;56.42
21433;BME280;18592;49.708;10.900;2023-02-23T11:10:58;98366.22;;;13.98;56.72
21433;BME280;18592;49.708;10.900;2023-02-23T11:13:00;98365.38;;;14.02;56.59
21433;BME280;18592;49.708;10.900;2023-02-23T11:17:55;98364.00;;;14.10;56.44
21433;BME280;18592;49.708;10.900;2023-02-23T11:19:59;98360.16;;;14.11;56.41
21433;BME280;18592;49.708;10.900;2023-02-23T11:22:04;98363.16;;;14.15;56.46
21433;BME280;18592;49.708;10.900;2023-02-23T11:26:30;98359.84;;;14.18;56.72
21433;BME280;18592;49.708;10.900;2023-02-23T11:28:35;98355.47;;;14.22;56.49
21433;BME280;18592;49.708;10.900;2023-02-23T11:30:39;98357.94;;;14.23;56.57
21433;BME280;18592;49.708;10.900;2023-02-23T11:32:49;98352.16;;;14.25;56.59
21433;BME280;18592;49.708;10.900;2023-02-23T11:37:21;98350.22;;;14.30;56.50
21433;BME280;18592;49.708;10.900;2023-02-23T11:39:23;98347.47;;;14.30;56.67
21433;BME280;18592;49.708;10.900;2023-02-23T11:41:25;98342.56;;;14.32;56.84
21433;BME280;18592;49.708;10.900;2023-02-23T11:43:30;98339.81;;;14.32;56.43
21433;BME280;18592;49.708;10.900;2023-02-23T11:45:53;98334.06;;;14.34;56.58
21433;BME280;18592;49.708;10.900;2023-02-23T11:47:58;98335.44;;;14.36;56.55
21433;BME280;18592;49.708;10.900;2023-02-23T11:50:06;98335.13;;;14.38;56.65
21433;BME280;18592;49.708;10.900;2023-02-23T11:52:14;98335.41;;;14.41;56.62
21433;BME280;18592;49.708;10.900;2023-02-23T11:54:56;98336.78;;;14.39;57.04
21433;BME280;18592;49.708;10.900;2023-02-23T11:56:59;98329.09;;;14.41;56.96